createdAt,value
2023-12-23T00:01:41.251Z,1.13
2023-12-23T00:04:10.071Z,0.80
2023-12-23T00:06:40.641Z,1.00
2023-12-23T00:09:09.384Z,1.00
2023-12-23T00:11:38.803Z,0.80
2023-12-23T00:14:10.590Z,1.03
2023-12-23T00:16:40.772Z,1.13
2023-12-23T00:19:13.384Z,1.47
2023-12-23T00:21:42.283Z,0.80
2023-12-23T00:24:10.827Z,1.33
2023-12-23T00:26:39.336Z,0.67
2023-12-23T00:29:08.161Z,0.67
2023-12-23T00:31:36.836Z,0.83
2023-12-23T00:34:06.919Z,1.10
2023-12-23T00:36:35.696Z,1.07
2023-12-23T00:39:07.658Z,1.23
2023-12-23T00:41:36.435Z,0.90
2023-12-23T00:44:05.333Z,1.67
2023-12-23T00:46:35.458Z,1.00
2023-12-23T00:49:04.210Z,0.77
2023-12-23T00:51:35.343Z,0.90
2023-12-23T00:54:05.567Z,1.03
2023-12-23T00:56:34.628Z,0.70
2023-12-23T01:01:35.121Z,0.97
2023-12-23T01:04:04.340Z,0.77
2023-12-23T01:06:33.188Z,0.70
2023-12-23T01:09:03.314Z,0.90
2023-12-23T01:11:32.321Z,1.17
2023-12-23T01:14:01.065Z,0.53
2023-12-23T01:16:29.643Z,1.43
2023-12-23T01:18:58.604Z,0.87
2023-12-23T01:21:27.677Z,0.77
2023-12-23T01:23:56.411Z,0.50
2023-12-23T01:26:26.558Z,0.83
2023-12-23T01:29:01.442Z,0.97
2023-12-23T01:31:30.439Z,0.60
2023-12-23T01:33:58.999Z,0.80
2023-12-23T01:36:28.677Z,1.43
2023-12-23T01:38:57.448Z,0.70
2023-12-23T01:41:29.706Z,0.60
2023-12-23T01:43:58.680Z,1.27
2023-12-23T01:46:43.038Z,1.07
2023-12-23T01:49:11.893Z,1.70
2023-12-23T01:51:40.452Z,0.67
2023-12-23T01:54:09.265Z,0.53
2023-12-23T01:56:39.596Z,0.60
2023-12-23T01:59:09.570Z,0.80
2023-12-23T02:01:37.994Z,0.73
2023-12-23T02:04:06.866Z,0.80
2023-12-23T02:06:36.123Z,0.63
2023-12-23T02:13:56.780Z,1.00
2023-12-23T02:16:27.237Z,0.90
2023-12-23T02:19:23.397Z,0.83
2023-12-23T02:21:53.307Z,0.87
2023-12-23T02:25:06.282Z,0.80
2023-12-23T02:27:39.688Z,0.93
2023-12-23T02:30:12.418Z,0.80
2023-12-23T02:32:42.216Z,0.47
2023-12-23T02:35:11.159Z,0.50
2023-12-23T02:37:43.133Z,0.30
2023-12-23T02:40:18.969Z,0.53
2023-12-23T02:42:48.584Z,0.37
2023-12-23T02:45:17.566Z,0.70
2023-12-23T02:47:56.322Z,1.23
2023-12-23T02:50:26.501Z,0.60
2023-12-23T02:52:57.989Z,0.37
2023-12-23T02:55:26.867Z,0.20
2023-12-23T02:57:56.646Z,0.87
2023-12-23T03:00:29.723Z,0.90
2023-12-23T03:02:59.123Z,0.83
2023-12-23T03:05:28.116Z,0.73
2023-12-23T03:08:03.131Z,0.40
2023-12-23T03:10:31.945Z,0.43
2023-12-23T03:13:00.542Z,0.60
2023-12-23T03:15:30.221Z,0.40
2023-12-23T03:17:59.480Z,1.13
2023-12-23T03:20:28.314Z,1.07
2023-12-23T03:22:57.324Z,0.73
2023-12-23T03:25:27.224Z,1.10
2023-12-23T03:27:55.937Z,0.77
2023-12-23T03:30:27.148Z,1.13
2023-12-23T03:32:57.960Z,0.63
2023-12-23T03:35:26.697Z,1.20
2023-12-23T03:37:55.522Z,0.53
2023-12-23T03:40:24.190Z,1.07
2023-12-23T03:42:54.946Z,0.70
2023-12-23T03:45:28.133Z,1.30
2023-12-23T03:47:56.980Z,1.27
2023-12-23T03:50:25.619Z,1.10
2023-12-23T03:52:55.549Z,0.80
2023-12-23T03:55:30.387Z,0.40
2023-12-23T03:58:00.655Z,0.70
2023-12-23T04:00:29.802Z,0.30
2023-12-23T04:02:58.625Z,0.40
2023-12-23T04:05:28.511Z,1.13
2023-12-23T04:07:57.381Z,0.57
2023-12-23T04:10:27.481Z,0.83
2023-12-23T04:13:04.940Z,0.90
2023-12-23T04:15:35.557Z,0.93
2023-12-23T04:18:04.413Z,0.80
2023-12-23T04:20:34.926Z,0.40
2023-12-23T04:23:05.963Z,0.63
2023-12-23T04:25:35.372Z,0.40
2023-12-23T04:28:04.150Z,1.00
2023-12-23T04:30:33.001Z,0.30
2023-12-23T04:33:02.992Z,0.30
2023-12-23T04:35:31.953Z,0.33
2023-12-23T04:38:00.591Z,0.57
2023-12-23T04:40:29.502Z,0.67
2023-12-23T04:42:58.276Z,0.40
2023-12-23T04:45:26.864Z,0.77
2023-12-23T04:47:57.319Z,0.70
2023-12-23T04:50:27.768Z,0.77
2023-12-23T04:52:59.477Z,0.60
2023-12-23T04:55:29.700Z,0.50
2023-12-23T04:57:58.291Z,0.50
2023-12-23T05:00:27.244Z,0.70
2023-12-23T05:02:56.056Z,0.50
2023-12-23T05:05:25.979Z,1.40
2023-12-23T05:07:56.219Z,0.50
2023-12-23T05:10:24.818Z,0.97
2023-12-23T05:12:53.693Z,0.70
2023-12-23T05:15:22.656Z,0.60
2023-12-23T05:17:51.506Z,0.30
2023-12-23T05:20:20.542Z,0.67
2023-12-23T05:22:49.725Z,0.30
2023-12-23T05:25:20.199Z,1.07
2023-12-23T05:27:49.132Z,0.60
2023-12-23T05:30:22.605Z,0.23
2023-12-23T05:32:51.885Z,0.63
2023-12-23T05:35:20.967Z,0.50
2023-12-23T05:37:49.854Z,0.50
2023-12-23T05:40:20.963Z,0.73
2023-12-23T05:42:49.894Z,0.70
2023-12-23T05:45:18.873Z,0.50
2023-12-23T05:47:49.534Z,0.87
2023-12-23T05:50:18.239Z,0.33
2023-12-23T05:52:47.053Z,0.30
2023-12-23T05:55:16.120Z,0.40
2023-12-23T05:57:46.257Z,0.50
2023-12-23T06:00:15.930Z,0.40
2023-12-23T06:02:44.689Z,0.43
2023-12-23T06:05:13.830Z,0.40
2023-12-23T06:07:42.664Z,0.57
2023-12-23T06:10:15.256Z,0.50
2023-12-23T06:12:43.790Z,0.53
2023-12-23T06:15:14.057Z,0.67
2023-12-23T06:17:42.628Z,0.30
2023-12-23T06:20:12.650Z,1.03
2023-12-23T06:22:41.280Z,0.53
2023-12-23T06:25:10.582Z,0.63
2023-12-23T06:27:39.320Z,0.20
2023-12-23T06:30:08.427Z,0.20
2023-12-23T06:32:38.737Z,0.40
2023-12-23T06:35:07.864Z,0.23
2023-12-23T06:37:37.798Z,0.40
2023-12-23T06:40:07.128Z,0.40
2023-12-23T06:42:35.908Z,0.40
2023-12-23T06:45:04.728Z,0.40
2023-12-23T06:47:33.433Z,0.40
2023-12-23T06:50:03.635Z,1.07
2023-12-23T06:52:32.492Z,0.20
2023-12-23T06:55:01.400Z,0.50
2023-12-23T06:57:30.180Z,0.50
2023-12-23T07:00:00.062Z,0.40
2023-12-23T07:02:28.779Z,0.70
2023-12-23T07:04:57.368Z,0.57
2023-12-23T07:07:27.536Z,0.40
2023-12-23T07:10:04.218Z,1.23
2023-12-23T07:12:36.158Z,0.73
2023-12-23T07:15:07.638Z,0.83
2023-12-23T07:17:41.440Z,0.67
2023-12-23T07:20:11.748Z,0.40
2023-12-23T07:22:41.764Z,1.53
2023-12-23T07:25:10.788Z,1.00
2023-12-23T07:27:39.752Z,1.40
2023-12-23T07:30:08.849Z,0.60
2023-12-23T07:32:39.784Z,0.47
2023-12-23T07:35:10.943Z,0.90
2023-12-23T07:37:39.790Z,1.00
2023-12-23T07:40:12.384Z,0.60
2023-12-23T07:42:41.019Z,1.20
2023-12-23T07:45:10.388Z,0.50
2023-12-23T07:47:39.179Z,1.70
2023-12-23T07:50:08.388Z,1.17
2023-12-23T07:52:37.049Z,0.77
2023-12-23T07:55:05.967Z,0.30
2023-12-23T07:57:38.102Z,0.87
2023-12-23T08:00:08.661Z,0.80
2023-12-23T08:02:39.406Z,1.27
2023-12-23T08:05:09.796Z,0.73
2023-12-23T08:07:40.508Z,1.70
2023-12-23T08:10:09.648Z,2.37
2023-12-23T08:12:39.960Z,1.00
2023-12-23T08:15:09.397Z,1.10
2023-12-23T08:17:38.512Z,1.70
2023-12-23T08:20:08.469Z,0.90
2023-12-23T08:22:37.123Z,0.70
2023-12-23T08:25:09.929Z,0.50
2023-12-23T08:27:41.176Z,0.40
2023-12-23T08:30:10.691Z,0.70
2023-12-23T08:32:39.420Z,0.47
2023-12-23T08:35:08.515Z,1.03
2023-12-23T08:37:37.066Z,6.23
2023-12-23T08:40:06.596Z,6.13
2023-12-23T08:42:35.571Z,2.40
2023-12-23T08:45:07.139Z,1.53
2023-12-23T08:47:35.954Z,5.70
2023-12-23T08:50:04.777Z,7.30
2023-12-23T08:52:33.543Z,8.33
2023-12-23T08:55:03.157Z,5.07
2023-12-23T08:57:34.065Z,5.90
2023-12-23T09:00:02.858Z,3.00
2023-12-23T09:02:32.798Z,1.40
2023-12-23T09:05:03.032Z,4.40
2023-12-23T09:07:35.257Z,1.57
2023-12-23T09:10:05.657Z,3.13
2023-12-23T09:12:36.926Z,1.20
2023-12-23T09:15:06.948Z,0.80
2023-12-23T09:17:36.958Z,1.73
2023-12-23T09:20:06.384Z,3.57
2023-12-23T09:22:35.098Z,2.03
2023-12-23T09:25:03.963Z,0.50
2023-12-23T09:27:33.086Z,0.47
2023-12-23T09:30:01.992Z,0.73
2023-12-23T09:32:30.845Z,1.13
2023-12-23T09:35:03.081Z,0.40
2023-12-23T09:37:33.850Z,0.67
2023-12-23T09:40:03.037Z,1.80
2023-12-23T09:42:31.780Z,0.87
2023-12-23T09:45:00.902Z,1.63
2023-12-23T09:47:30.158Z,1.10
2023-12-23T09:49:59.110Z,0.80
2023-12-23T09:52:30.334Z,1.60
2023-12-23T09:55:03.393Z,2.10
2023-12-23T09:57:33.826Z,2.03
2023-12-23T10:00:02.589Z,0.90
2023-12-23T10:02:40.640Z,1.63
2023-12-23T10:05:10.191Z,1.70
2023-12-23T10:07:43.960Z,1.20
2023-12-23T10:10:13.337Z,1.73
2023-12-23T10:12:41.971Z,1.23
2023-12-23T10:15:10.716Z,1.63
2023-12-23T10:17:39.608Z,1.90
2023-12-23T10:20:08.820Z,1.77
2023-12-23T10:22:37.853Z,3.33
2023-12-23T10:25:08.561Z,6.47
2023-12-23T10:27:37.545Z,4.27
2023-12-23T10:30:10.815Z,7.23
2023-12-23T10:32:40.428Z,3.63
2023-12-23T10:35:11.976Z,3.83
2023-12-23T10:37:43.077Z,3.13
2023-12-23T10:40:15.779Z,2.27
2023-12-23T10:42:45.291Z,2.20
2023-12-23T10:45:14.718Z,1.77
2023-12-23T10:47:45.070Z,1.57
2023-12-23T10:50:14.736Z,1.60
2023-12-23T10:52:44.236Z,1.90
2023-12-23T10:55:15.122Z,2.10
2023-12-23T10:57:44.036Z,1.17
2023-12-23T11:00:14.123Z,1.50
2023-12-23T11:02:43.679Z,1.37
2023-12-23T11:05:14.000Z,1.67
2023-12-23T11:07:45.580Z,1.60
2023-12-23T11:10:16.184Z,1.60
2023-12-23T11:12:45.039Z,1.60
2023-12-23T11:15:14.553Z,1.57
2023-12-23T11:17:44.731Z,2.10
2023-12-23T11:20:29.048Z,2.03
2023-12-23T11:22:57.884Z,1.17
2023-12-23T11:25:42.937Z,1.47
2023-12-23T11:28:12.216Z,2.10
2023-12-23T11:30:41.382Z,1.60
2023-12-23T11:33:10.410Z,1.30
2023-12-23T11:35:40.654Z,2.23
2023-12-23T11:38:12.073Z,1.50
2023-12-23T11:40:41.442Z,1.30
2023-12-23T11:43:10.035Z,1.40
2023-12-23T11:45:39.540Z,2.40
2023-12-23T11:48:09.641Z,1.57
2023-12-23T11:50:38.434Z,1.73
2023-12-23T11:53:08.371Z,1.97
2023-12-23T11:55:37.482Z,1.53
2023-12-23T11:58:09.789Z,1.20
2023-12-23T12:00:41.959Z,1.50
2023-12-23T12:03:11.703Z,1.77
2023-12-23T12:05:40.836Z,1.73
2023-12-23T12:08:09.947Z,1.80
2023-12-23T12:10:38.538Z,2.17
2023-12-23T12:13:09.816Z,1.80
2023-12-23T12:15:41.081Z,2.00
2023-12-23T12:18:09.953Z,2.47
2023-12-23T12:20:38.694Z,2.20
2023-12-23T12:23:07.569Z,1.67
2023-12-23T12:25:36.269Z,1.20
2023-12-23T12:28:05.042Z,1.27
2023-12-23T12:30:35.437Z,1.10
2023-12-23T12:33:05.194Z,1.10
2023-12-23T12:35:35.457Z,1.30
2023-12-23T12:38:13.718Z,1.03
2023-12-23T12:40:48.296Z,1.67
2023-12-23T12:43:17.295Z,1.47
2023-12-23T12:45:50.525Z,0.60
2023-12-23T12:48:19.657Z,1.07
2023-12-23T12:50:48.814Z,0.50
2023-12-23T12:53:18.966Z,0.60
2023-12-23T12:55:47.862Z,0.93
2023-12-23T12:58:16.555Z,0.70
2023-12-23T13:00:46.799Z,0.40
2023-12-23T13:03:15.638Z,0.40
2023-12-23T13:05:45.225Z,0.70
2023-12-23T13:08:13.960Z,0.60
2023-12-23T13:10:45.294Z,0.47
2023-12-23T13:13:17.200Z,0.40
2023-12-23T13:15:48.329Z,0.40
2023-12-23T13:18:17.109Z,0.50
2023-12-23T13:20:46.594Z,0.60
2023-12-23T13:23:15.890Z,0.80
2023-12-23T13:25:45.337Z,0.60
2023-12-23T13:28:13.988Z,0.40
2023-12-23T13:30:42.632Z,0.90
2023-12-23T13:33:13.978Z,1.17
2023-12-23T13:35:43.302Z,0.50
2023-12-23T13:38:12.009Z,1.13
2023-12-23T13:40:40.668Z,0.90
2023-12-23T13:43:11.511Z,0.40
2023-12-23T13:45:40.374Z,0.40
2023-12-23T13:48:09.556Z,0.60
2023-12-23T13:50:44.418Z,0.67
2023-12-23T13:53:16.165Z,0.60
2023-12-23T13:55:47.642Z,0.73
2023-12-23T13:58:17.813Z,0.50
2023-12-23T14:00:46.779Z,0.30
2023-12-23T14:03:16.452Z,0.50
2023-12-23T14:05:47.288Z,0.43
2023-12-23T14:08:16.007Z,0.63
2023-12-23T14:10:49.182Z,0.97
2023-12-23T14:13:19.379Z,0.90
2023-12-23T14:15:48.208Z,0.60
2023-12-23T14:18:17.950Z,0.80
2023-12-23T14:20:52.960Z,0.63
2023-12-23T14:23:21.842Z,2.60
2023-12-23T14:25:50.558Z,3.67
2023-12-23T14:28:19.490Z,2.27
2023-12-23T14:30:50.965Z,0.90
2023-12-23T14:33:21.379Z,1.10
2023-12-23T14:35:54.228Z,0.50
2023-12-23T14:38:23.217Z,0.77
2023-12-23T14:40:53.137Z,0.50
2023-12-23T14:43:22.843Z,2.87
2023-12-23T14:45:52.095Z,1.70
2023-12-23T14:48:21.962Z,1.37
2023-12-23T14:50:52.888Z,1.10
2023-12-23T14:53:22.325Z,2.40
2023-12-23T14:56:00.047Z,3.63
2023-12-23T14:58:28.828Z,1.50
2023-12-23T15:00:57.358Z,1.40
2023-12-23T15:03:26.689Z,1.30
2023-12-23T15:05:56.730Z,1.30
2023-12-23T15:08:25.644Z,1.30
2023-12-23T15:10:54.589Z,1.07
2023-12-23T15:13:25.074Z,0.90
2023-12-23T15:15:56.362Z,1.30
2023-12-23T15:18:26.203Z,0.70
2023-12-23T15:20:55.199Z,2.93
2023-12-23T15:23:25.377Z,1.20
2023-12-23T15:25:54.391Z,2.50
2023-12-23T15:28:23.201Z,2.63
2023-12-23T15:30:56.377Z,2.83
2023-12-23T15:33:25.783Z,2.77
2023-12-23T15:35:54.695Z,4.63
2023-12-23T15:38:27.052Z,4.00
2023-12-23T15:40:55.757Z,3.90
2023-12-23T15:43:26.071Z,1.87
2023-12-23T15:45:54.868Z,2.80
2023-12-23T15:48:23.594Z,1.33
2023-12-23T15:50:52.339Z,1.57
2023-12-23T15:53:21.394Z,2.00
2023-12-23T15:55:51.973Z,2.43
2023-12-23T15:58:22.025Z,1.37
2023-12-23T16:00:50.800Z,2.40
2023-12-23T16:03:19.484Z,3.93
2023-12-23T16:05:48.732Z,3.40
2023-12-23T16:08:17.670Z,1.50
2023-12-23T16:10:46.837Z,1.47
2023-12-23T16:13:17.110Z,1.60
2023-12-23T16:15:45.918Z,3.20
2023-12-23T16:18:14.694Z,1.53
2023-12-23T16:20:43.537Z,1.83
2023-12-23T16:23:12.300Z,1.40
2023-12-23T16:25:41.444Z,1.20
2023-12-23T16:28:10.427Z,2.90
2023-12-23T16:30:40.650Z,2.63
2023-12-23T16:33:09.533Z,2.10
2023-12-23T16:35:38.196Z,1.30
2023-12-23T16:38:07.334Z,1.63
2023-12-23T16:40:36.860Z,1.37
2023-12-23T16:43:06.136Z,2.03
2023-12-23T16:45:35.344Z,2.60
2023-12-23T16:48:05.489Z,2.63
2023-12-23T16:50:34.348Z,2.50
2023-12-23T16:53:04.452Z,2.10
2023-12-23T16:55:33.436Z,1.83
2023-12-23T16:58:03.087Z,1.30
2023-12-23T17:00:31.826Z,1.60
2023-12-23T17:03:00.696Z,1.60
2023-12-23T17:05:31.833Z,0.87
2023-12-23T17:08:00.648Z,2.37
2023-12-23T17:10:30.296Z,2.50
2023-12-23T17:12:59.178Z,1.07
2023-12-23T17:15:28.202Z,1.67
2023-12-23T17:17:58.088Z,3.93
2023-12-23T17:20:27.474Z,2.33
2023-12-23T17:22:57.683Z,1.20
2023-12-23T17:25:25.966Z,1.07
2023-12-23T17:27:54.588Z,2.10
2023-12-23T17:30:23.396Z,1.87
2023-12-23T17:32:54.547Z,2.47
2023-12-23T17:35:26.242Z,1.90
2023-12-23T17:37:55.334Z,1.20
2023-12-23T17:40:25.287Z,1.47
2023-12-23T17:42:54.203Z,1.47
2023-12-23T17:45:23.156Z,0.80
2023-12-23T17:47:53.116Z,1.50
2023-12-23T17:50:21.809Z,1.30
2023-12-23T17:52:53.053Z,2.03
2023-12-23T17:55:22.552Z,2.63
2023-12-23T17:57:53.092Z,2.10
2023-12-23T18:00:23.586Z,2.13
2023-12-23T18:02:52.745Z,2.70
2023-12-23T18:05:31.528Z,4.17
2023-12-23T18:08:03.473Z,3.00
2023-12-23T18:10:34.684Z,5.53
2023-12-23T18:13:08.595Z,2.70
2023-12-23T18:15:37.251Z,2.93
2023-12-23T18:18:06.329Z,3.73
2023-12-23T18:20:35.169Z,3.83
2023-12-23T18:23:04.129Z,5.53
2023-12-23T18:25:33.240Z,5.37
2023-12-23T18:28:03.097Z,4.20
2023-12-23T18:30:33.857Z,4.90
2023-12-23T18:33:02.825Z,2.10
2023-12-23T18:35:31.700Z,3.17
2023-12-23T18:38:01.719Z,3.47
2023-12-23T18:40:30.368Z,2.20
2023-12-23T18:43:02.213Z,2.77
2023-12-23T18:45:31.010Z,2.83
2023-12-23T18:48:03.583Z,1.57
2023-12-23T18:50:32.944Z,0.97
2023-12-23T18:53:06.018Z,1.53
2023-12-23T18:55:35.058Z,1.47
2023-12-23T18:58:06.206Z,2.00
2023-12-23T19:00:35.102Z,2.47
2023-12-23T19:03:10.079Z,1.83
2023-12-23T19:05:54.029Z,2.57
2023-12-23T19:08:23.550Z,2.27
2023-12-23T19:10:54.675Z,1.60
2023-12-23T19:13:23.560Z,1.70
2023-12-23T19:15:52.463Z,1.43
2023-12-23T19:18:22.533Z,1.80
2023-12-23T19:20:51.732Z,1.60
2023-12-23T19:23:20.854Z,1.67
2023-12-23T19:25:52.007Z,1.70
2023-12-23T19:28:20.787Z,2.57
2023-12-23T19:30:55.581Z,1.70
2023-12-23T19:33:26.211Z,1.63
2023-12-23T19:35:55.210Z,2.13
2023-12-23T19:38:24.588Z,1.67
2023-12-23T19:40:55.590Z,1.20
2023-12-23T19:43:24.895Z,1.53
2023-12-23T19:45:55.056Z,2.13
2023-12-23T19:48:24.431Z,2.03
2023-12-23T19:50:54.629Z,1.87
2023-12-23T19:53:25.773Z,1.60
2023-12-23T19:55:59.809Z,1.83
2023-12-23T19:58:30.168Z,1.73
2023-12-23T20:00:58.819Z,2.03
2023-12-23T20:03:27.845Z,1.97
2023-12-23T20:05:58.378Z,1.70
2023-12-23T20:08:27.273Z,1.90
2023-12-23T20:10:57.239Z,1.60
2023-12-23T20:13:27.128Z,1.57
2023-12-23T20:15:55.836Z,2.10
2023-12-23T20:18:27.580Z,2.30
2023-12-23T20:20:59.768Z,1.63
2023-12-23T20:23:28.821Z,1.53
2023-12-23T20:25:57.749Z,2.07
2023-12-23T20:28:26.340Z,1.80
2023-12-23T20:30:55.148Z,1.77
2023-12-23T20:33:24.259Z,1.80
2023-12-23T20:35:53.305Z,1.73
2023-12-23T20:38:23.567Z,2.03
2023-12-23T20:40:52.296Z,1.90
2023-12-23T20:43:20.859Z,1.87
2023-12-23T20:45:49.547Z,1.70
2023-12-23T20:48:21.404Z,1.33
2023-12-23T20:50:51.245Z,1.70
2023-12-23T20:53:21.224Z,1.30
2023-12-23T20:55:51.545Z,1.50
2023-12-23T20:58:20.957Z,1.70
2023-12-23T21:00:50.158Z,1.93
2023-12-23T21:03:18.895Z,1.37
2023-12-23T21:05:48.249Z,1.33
2023-12-23T21:08:16.958Z,2.23
2023-12-23T21:10:45.893Z,2.00
2023-12-23T21:13:19.407Z,2.00
2023-12-23T21:15:48.195Z,1.50
2023-12-23T21:18:19.211Z,2.60
2023-12-23T21:20:47.999Z,2.00
2023-12-23T21:23:16.696Z,2.47
2023-12-23T21:25:46.910Z,3.03
2023-12-23T21:28:16.934Z,3.20
2023-12-23T21:30:46.971Z,3.33
2023-12-23T21:33:15.853Z,2.93
2023-12-23T21:35:47.816Z,3.23
2023-12-23T21:38:18.008Z,2.93
2023-12-23T21:40:47.506Z,3.23
2023-12-23T21:43:17.942Z,2.90
2023-12-23T21:45:46.583Z,2.77
2023-12-23T21:48:19.431Z,2.20
2023-12-23T21:50:48.519Z,2.77
2023-12-23T21:53:17.438Z,3.27
2023-12-23T21:55:48.776Z,3.30
2023-12-23T21:58:18.985Z,3.17
2023-12-23T22:00:48.843Z,2.80
2023-12-23T22:03:18.094Z,2.83
2023-12-23T22:05:47.730Z,3.37
2023-12-23T22:08:19.510Z,3.03
2023-12-23T22:10:50.682Z,3.07
2023-12-23T22:13:20.603Z,3.27
2023-12-23T22:15:50.348Z,2.80
2023-12-23T22:18:20.109Z,3.30
2023-12-23T22:20:48.721Z,3.17
2023-12-23T22:23:17.901Z,2.97
2023-12-23T22:25:47.642Z,2.93
2023-12-23T22:28:16.793Z,3.83
2023-12-23T22:30:47.178Z,3.10
2023-12-23T22:33:16.074Z,3.43
2023-12-23T22:35:47.556Z,3.00
2023-12-23T22:38:16.471Z,3.80
2023-12-23T22:40:45.266Z,3.63
2023-12-23T22:43:14.176Z,2.70
2023-12-23T22:45:43.133Z,3.77
2023-12-23T22:48:13.704Z,3.30
2023-12-23T22:50:42.334Z,3.43
2023-12-23T22:53:10.995Z,3.53
2023-12-23T22:55:39.880Z,3.97
2023-12-23T22:58:10.870Z,3.73
2023-12-23T23:00:39.742Z,3.60
2023-12-23T23:03:09.341Z,4.30
2023-12-23T23:05:39.963Z,5.00
2023-12-23T23:08:10.106Z,4.67
2023-12-23T23:10:38.970Z,4.07
2023-12-23T23:13:10.214Z,4.57
2023-12-23T23:15:40.093Z,3.97
2023-12-23T23:18:09.399Z,3.97
2023-12-23T23:20:40.188Z,3.60
2023-12-23T23:23:09.025Z,3.57
2023-12-23T23:25:37.651Z,3.57
2023-12-23T23:28:06.397Z,2.73
2023-12-23T23:30:35.205Z,2.97
2023-12-23T23:33:06.375Z,3.03
2023-12-23T23:35:35.091Z,2.40
2023-12-23T23:38:05.486Z,2.77
2023-12-23T23:40:34.174Z,2.53
2023-12-23T23:43:02.945Z,2.93
2023-12-23T23:45:32.013Z,2.87
2023-12-23T23:48:01.872Z,2.20
2023-12-23T23:50:30.674Z,3.20
2023-12-23T23:52:59.515Z,1.93
2023-12-23T23:55:29.531Z,1.70
2023-12-23T23:57:58.333Z,1.70
